createdAt,value
2019-06-01T00:01:50.451Z,15.70
2019-06-01T00:04:19.300Z,15.70
2019-06-01T00:06:48.949Z,15.60
2019-06-01T00:09:18.098Z,15.60
2019-06-01T00:11:47.488Z,15.60
2019-06-01T00:14:16.601Z,15.60
2019-06-01T00:16:46.041Z,15.60
2019-06-01T00:19:15.326Z,15.60
2019-06-01T00:21:45.412Z,15.60
2019-06-01T00:24:14.780Z,15.60
2019-06-01T00:26:43.791Z,15.50
2019-06-01T00:29:12.831Z,15.60
2019-06-01T00:31:42.960Z,15.50
2019-06-01T00:34:12.377Z,15.60
2019-06-01T00:36:41.543Z,15.50
2019-06-01T00:39:10.870Z,15.50
2019-06-01T00:41:39.877Z,15.50
2019-06-01T00:44:08.889Z,15.50
2019-06-01T00:46:37.885Z,15.40
2019-06-01T00:49:06.856Z,15.50
2019-06-01T00:51:35.793Z,15.40
2019-06-01T00:54:04.906Z,15.40
2019-06-01T00:56:33.931Z,15.40
2019-06-01T00:59:02.804Z,15.40
2019-06-01T01:01:31.807Z,15.40
2019-06-01T01:04:00.793Z,15.40
2019-06-01T01:06:29.750Z,15.40
2019-06-01T01:08:58.677Z,15.30
2019-06-01T01:11:27.750Z,15.40
2019-06-01T01:13:56.730Z,15.40
2019-06-01T01:16:25.645Z,15.30
2019-06-01T01:18:54.496Z,15.30
2019-06-01T01:21:23.488Z,15.30
2019-06-01T01:23:53.144Z,15.30
2019-06-01T01:26:22.894Z,15.20
2019-06-01T01:28:52.973Z,15.20
2019-06-01T01:31:22.512Z,15.20
2019-06-01T01:33:51.538Z,15.20
2019-06-01T01:36:20.474Z,15.10
2019-06-01T01:38:50.478Z,15.10
2019-06-01T01:41:19.816Z,15.10
2019-06-01T01:43:48.788Z,15.10
2019-06-01T01:46:17.758Z,15.10
2019-06-01T01:48:46.750Z,15.10
2019-06-01T01:51:15.690Z,15.00
2019-06-01T01:53:44.629Z,15.00
2019-06-01T01:56:13.665Z,15.00
2019-06-01T01:58:42.614Z,15.00
2019-06-01T02:01:22.161Z,14.90
2019-06-01T02:03:42.438Z,14.90
2019-06-01T02:06:11.437Z,14.90
2019-06-01T02:08:40.386Z,14.90
2019-06-01T02:11:09.299Z,14.90
2019-06-01T02:13:38.313Z,14.90
2019-06-01T02:16:07.345Z,14.90
2019-06-01T02:18:36.327Z,14.90
2019-06-01T02:21:05.332Z,14.90
2019-06-01T02:23:34.263Z,14.80
2019-06-01T02:26:03.409Z,14.80
2019-06-01T02:28:32.778Z,14.80
2019-06-01T02:31:02.132Z,14.80
2019-06-01T02:33:31.417Z,14.70
2019-06-01T02:36:00.828Z,14.70
2019-06-01T02:38:30.999Z,14.70
2019-06-01T02:41:01.198Z,14.60
2019-06-01T02:43:30.764Z,14.70
2019-06-01T02:46:00.623Z,14.60
2019-06-01T02:48:30.070Z,14.60
2019-06-01T02:50:59.886Z,14.50
2019-06-01T02:53:29.353Z,14.50
2019-06-01T02:55:58.369Z,14.50
2019-06-01T02:58:27.319Z,14.50
2019-06-01T03:01:33.988Z,14.50
2019-06-01T03:04:08.079Z,14.40
2019-06-01T03:06:43.284Z,14.40
2019-06-01T03:09:12.917Z,14.30
2019-06-01T03:11:42.519Z,14.30
2019-06-01T03:14:12.329Z,14.30
2019-06-01T03:16:43.501Z,14.30
2019-06-01T03:19:15.048Z,14.20
2019-06-01T03:21:47.362Z,14.20
2019-06-01T03:24:16.309Z,14.20
2019-06-01T03:26:47.042Z,14.10
2019-06-01T03:29:18.712Z,14.10
2019-06-01T03:31:47.756Z,14.10
2019-06-01T03:34:16.779Z,14.10
2019-06-01T03:36:45.786Z,14.10
2019-06-01T03:39:14.780Z,14.10
2019-06-01T03:41:43.730Z,14.10
2019-06-01T03:44:13.075Z,14.10
2019-06-01T03:46:42.269Z,14.10
2019-06-01T03:49:11.971Z,14.10
2019-06-01T03:51:41.368Z,14.10
2019-06-01T03:54:10.453Z,14.10
2019-06-01T03:56:39.882Z,14.10
2019-06-01T03:59:09.371Z,14.10
2019-06-01T04:01:38.531Z,14.10
2019-06-01T04:04:07.552Z,14.10
2019-06-01T04:06:37.938Z,14.10
2019-06-01T04:09:08.260Z,14.20
2019-06-01T04:11:38.453Z,14.20
2019-06-01T04:14:07.759Z,14.20
2019-06-01T04:16:36.918Z,14.20
2019-06-01T04:19:06.156Z,14.20
2019-06-01T04:21:35.280Z,14.30
2019-06-01T04:24:04.287Z,14.30
2019-06-01T04:26:33.238Z,14.30
2019-06-01T04:29:02.366Z,14.30
2019-06-01T04:31:31.604Z,14.40
2019-06-01T04:34:00.486Z,14.50
2019-06-01T04:36:29.511Z,14.50
2019-06-01T04:38:58.547Z,14.60
2019-06-01T04:41:27.550Z,14.70
2019-06-01T04:43:56.555Z,14.80
2019-06-01T04:46:25.461Z,14.90
2019-06-01T04:48:54.503Z,15.00
2019-06-01T04:51:23.509Z,15.10
2019-06-01T04:53:52.527Z,15.20
2019-06-01T04:56:21.458Z,15.30
2019-06-01T04:58:50.380Z,15.40
2019-06-01T05:01:19.314Z,15.50
2019-06-01T05:03:48.277Z,15.60
2019-06-01T05:06:17.286Z,15.70
2019-06-01T05:08:46.405Z,15.80
2019-06-01T05:11:15.703Z,15.90
2019-06-01T05:13:44.973Z,16.10
2019-06-01T05:16:14.825Z,16.40
2019-06-01T05:18:44.553Z,16.70
2019-06-01T05:21:15.146Z,16.90
2019-06-01T05:23:44.389Z,17.10
2019-06-01T05:26:13.423Z,17.20
2019-06-01T05:28:42.414Z,17.30
2019-06-01T05:31:16.811Z,17.40
2019-06-01T05:33:42.226Z,17.60
2019-06-01T05:36:12.021Z,17.80
2019-06-01T05:38:41.533Z,18.00
2019-06-01T05:41:11.947Z,18.30
2019-06-01T05:43:42.601Z,18.80
2019-06-01T05:46:11.834Z,19.30
2019-06-01T05:48:41.223Z,19.50
2019-06-01T05:51:13.670Z,20.00
2019-06-01T05:53:40.934Z,21.70
2019-06-01T05:56:10.538Z,23.80
2019-06-01T05:58:39.872Z,25.90
2019-06-01T06:01:10.297Z,27.60
2019-06-01T06:03:40.670Z,28.90
2019-06-01T06:06:09.974Z,30.20
2019-06-01T06:08:38.973Z,31.20
2019-06-01T06:11:07.897Z,31.90
2019-06-01T06:13:36.936Z,31.90
2019-06-01T06:16:05.944Z,32.40
2019-06-01T06:18:34.880Z,33.00
2019-06-01T06:21:03.960Z,33.80
2019-06-01T06:23:33.114Z,34.50
2019-06-01T06:26:01.981Z,35.20
2019-06-01T06:28:30.942Z,35.60
2019-06-01T06:30:59.986Z,36.10
2019-06-01T06:33:29.071Z,34.90
2019-06-01T06:35:58.345Z,35.20
2019-06-01T06:38:27.373Z,35.10
2019-06-01T06:40:56.555Z,35.50
2019-06-01T06:43:32.595Z,35.80
2019-06-01T06:45:56.193Z,34.70
2019-06-01T06:48:25.334Z,34.00
2019-06-01T06:50:54.553Z,35.20
2019-06-01T06:53:32.653Z,35.80
2019-06-01T06:55:54.939Z,36.40
2019-06-01T06:58:24.454Z,37.30
2019-06-01T07:00:53.759Z,37.60
2019-06-01T07:03:23.122Z,38.40
2019-06-01T07:05:52.997Z,36.80
2019-06-01T07:08:22.027Z,35.50
2019-06-01T07:10:51.197Z,34.60
2019-06-01T07:13:21.227Z,35.60
2019-06-01T07:15:50.314Z,36.70
2019-06-01T07:18:19.455Z,37.60
2019-06-01T07:20:48.793Z,38.10
2019-06-01T07:23:17.970Z,38.50
2019-06-01T07:25:46.984Z,38.90
2019-06-01T07:28:15.940Z,38.70
2019-06-01T07:30:50.520Z,39.20
2019-06-01T07:33:15.827Z,39.50
2019-06-01T07:35:44.765Z,39.60
2019-06-01T07:38:13.712Z,39.80
2019-06-01T07:40:42.727Z,39.80
2019-06-01T07:43:11.950Z,39.90
2019-06-01T07:45:40.983Z,39.70
2019-06-01T07:48:09.977Z,39.40
2019-06-01T07:50:38.988Z,38.90
2019-06-01T07:53:08.061Z,38.80
2019-06-01T07:55:37.175Z,39.10
2019-06-01T07:58:06.279Z,38.70
2019-06-01T08:00:35.265Z,38.50
2019-06-01T08:03:04.985Z,38.90
2019-06-01T08:05:34.098Z,39.20
2019-06-01T08:08:03.108Z,39.40
2019-06-01T08:10:32.341Z,39.40
2019-06-01T08:13:01.310Z,38.90
2019-06-01T08:15:30.299Z,38.40
2019-06-01T08:17:59.326Z,38.50
2019-06-01T08:20:28.762Z,38.80
2019-06-01T08:22:58.149Z,39.10
2019-06-01T08:25:28.606Z,38.80
2019-06-01T08:27:57.823Z,39.00
2019-06-01T08:30:26.865Z,38.90
2019-06-01T08:32:55.802Z,39.20
2019-06-01T08:35:24.923Z,38.70
2019-06-01T08:37:54.031Z,37.90
2019-06-01T08:40:23.316Z,37.80
2019-06-01T08:42:52.416Z,37.70
2019-06-01T08:45:21.428Z,37.60
2019-06-01T08:47:50.448Z,37.10
2019-06-01T08:50:19.884Z,37.10
2019-06-01T08:52:48.980Z,37.50
2019-06-01T08:55:18.212Z,37.40
2019-06-01T08:57:47.157Z,37.60
2019-06-01T09:00:16.300Z,37.40
2019-06-01T09:02:45.311Z,37.20
2019-06-01T09:05:23.820Z,37.00
2019-06-01T09:07:45.247Z,36.90
2019-06-01T09:10:15.057Z,36.60
2019-06-01T09:12:44.167Z,36.50
2019-06-01T09:15:13.807Z,35.70
2019-06-01T09:17:42.857Z,35.40
2019-06-01T09:20:12.662Z,35.60
2019-06-01T09:22:41.889Z,35.40
2019-06-01T09:25:11.067Z,35.20
2019-06-01T09:27:40.095Z,34.80
2019-06-01T09:30:10.108Z,34.50
2019-06-01T09:32:39.128Z,34.50
2019-06-01T09:35:08.196Z,34.30
2019-06-01T09:37:37.148Z,34.50
2019-06-01T09:40:06.706Z,34.70
2019-06-01T09:42:37.284Z,34.80
2019-06-01T09:45:06.852Z,34.80
2019-06-01T09:47:35.856Z,34.60
2019-06-01T09:50:05.672Z,34.10
2019-06-01T09:52:35.567Z,33.90
2019-06-01T09:55:06.398Z,33.80
2019-06-01T09:57:36.100Z,33.90
2019-06-01T10:00:06.765Z,33.40
2019-06-01T10:02:36.229Z,32.70
2019-06-01T10:05:06.125Z,32.50
2019-06-01T10:07:35.182Z,32.00
2019-06-01T10:10:04.645Z,31.70
2019-06-01T10:12:33.939Z,31.50
2019-06-01T10:15:03.218Z,31.30
2019-06-01T10:17:33.374Z,31.40
2019-06-01T10:20:03.142Z,31.40
2019-06-01T10:22:33.136Z,31.30
2019-06-01T10:25:02.295Z,31.00
2019-06-01T10:27:32.441Z,31.00
2019-06-01T10:30:01.727Z,30.80
2019-06-01T10:32:32.555Z,30.50
2019-06-01T10:35:01.755Z,30.40
2019-06-01T10:37:31.376Z,30.30
2019-06-01T10:40:00.800Z,30.40
2019-06-01T10:42:32.703Z,30.20
2019-06-01T10:45:00.976Z,30.00
2019-06-01T10:47:30.044Z,30.00
2019-06-01T10:49:58.993Z,29.90
2019-06-01T10:52:27.955Z,29.60
2019-06-01T10:54:56.928Z,29.40
2019-06-01T10:57:26.000Z,29.40
2019-06-01T10:59:55.032Z,29.40
2019-06-01T11:02:24.066Z,29.30
2019-06-01T11:04:53.174Z,29.20
2019-06-01T11:07:22.130Z,29.10
2019-06-01T11:09:51.235Z,29.10
2019-06-01T11:12:20.376Z,29.20
2019-06-01T11:14:49.309Z,29.10
2019-06-01T11:17:18.362Z,29.10
2019-06-01T11:19:47.339Z,28.80
2019-06-01T11:22:16.264Z,28.70
2019-06-01T11:24:45.295Z,28.80
2019-06-01T11:27:14.266Z,28.70
2019-06-01T11:29:50.766Z,28.70
2019-06-01T11:32:14.024Z,28.70
2019-06-01T11:34:44.419Z,28.70
2019-06-01T11:37:15.530Z,28.70
2019-06-01T11:39:44.777Z,28.60
2019-06-01T11:42:13.821Z,28.60
2019-06-01T11:44:42.908Z,28.60
2019-06-01T11:47:12.077Z,28.60
2019-06-01T11:49:41.025Z,28.70
2019-06-01T11:52:10.150Z,28.60
2019-06-01T11:54:39.198Z,28.70
2019-06-01T11:57:08.306Z,28.60
2019-06-01T11:59:37.370Z,28.60
2019-06-01T12:02:06.608Z,28.40
2019-06-01T12:04:35.812Z,28.30
2019-06-01T12:07:17.214Z,28.40
2019-06-01T12:09:35.882Z,28.40
2019-06-01T12:12:04.927Z,28.50
2019-06-01T12:14:33.917Z,28.50
2019-06-01T12:17:02.844Z,28.40
2019-06-01T12:19:31.838Z,28.50
2019-06-01T12:22:00.902Z,28.70
2019-06-01T12:24:29.941Z,28.70
2019-06-01T12:26:58.952Z,28.90
2019-06-01T12:29:27.978Z,28.90
2019-06-01T12:31:56.999Z,28.80
2019-06-01T12:34:25.999Z,28.80
2019-06-01T12:36:54.962Z,28.80
2019-06-01T12:39:23.965Z,28.80
2019-06-01T12:41:53.110Z,28.80
2019-06-01T12:44:22.062Z,28.80
2019-06-01T12:46:51.049Z,28.80
2019-06-01T12:49:20.141Z,28.90
2019-06-01T12:51:49.148Z,28.90
2019-06-01T12:54:18.115Z,28.90
2019-06-01T12:56:49.303Z,28.90
2019-06-01T12:59:17.920Z,28.80
2019-06-01T13:01:47.354Z,28.80
2019-06-01T13:04:16.330Z,28.80
2019-06-01T13:06:49.440Z,28.80
2019-06-01T13:09:15.954Z,28.80
2019-06-01T13:11:45.279Z,28.80
2019-06-01T13:14:14.202Z,29.00
2019-06-01T13:16:48.434Z,29.00
2019-06-01T13:19:13.794Z,28.90
2019-06-01T13:21:43.314Z,29.00
2019-06-01T13:24:12.368Z,29.00
2019-06-01T13:26:41.844Z,29.00
2019-06-01T13:29:11.063Z,29.10
2019-06-01T13:31:40.081Z,29.20
2019-06-01T13:34:09.128Z,29.30
2019-06-01T13:36:39.183Z,29.00
2019-06-01T13:39:08.912Z,28.90
2019-06-01T13:41:37.870Z,28.90
2019-06-01T13:44:06.946Z,29.00
2019-06-01T13:46:35.905Z,29.10
2019-06-01T13:49:04.935Z,29.30
2019-06-01T13:51:33.879Z,29.40
2019-06-01T13:54:02.842Z,29.40
2019-06-01T13:56:31.879Z,29.40
2019-06-01T13:59:00.839Z,29.50
2019-06-01T14:01:29.970Z,29.50
2019-06-01T14:03:59.045Z,29.70
2019-06-01T14:06:27.974Z,29.80
2019-06-01T14:08:56.861Z,29.80
2019-06-01T14:11:25.847Z,29.70
2019-06-01T14:13:55.970Z,29.70
2019-06-01T14:16:25.194Z,29.80
2019-06-01T14:18:54.274Z,29.90
2019-06-01T14:21:23.213Z,30.00
2019-06-01T14:23:52.232Z,30.10
2019-06-01T14:26:21.224Z,30.00
2019-06-01T14:28:50.188Z,30.00
2019-06-01T14:31:19.183Z,30.00
2019-06-01T14:33:48.434Z,30.10
2019-06-01T14:36:17.522Z,30.10
2019-06-01T14:38:49.034Z,30.20
2019-06-01T14:41:17.486Z,30.30
2019-06-01T14:43:46.908Z,30.30
2019-06-01T14:46:15.980Z,30.30
2019-06-01T14:48:44.954Z,30.40
2019-06-01T14:51:13.881Z,30.50
2019-06-01T14:53:42.870Z,30.50
2019-06-01T14:56:11.911Z,30.50
2019-06-01T14:58:42.034Z,30.40
2019-06-01T15:01:11.221Z,30.30
2019-06-01T15:03:40.450Z,30.40
2019-06-01T15:06:10.173Z,30.10
2019-06-01T15:08:39.277Z,29.40
2019-06-01T15:11:08.314Z,29.10
2019-06-01T15:13:37.440Z,28.50
2019-06-01T15:16:07.086Z,28.20
2019-06-01T15:18:36.130Z,28.10
2019-06-01T15:21:05.364Z,28.00
2019-06-01T15:23:34.328Z,27.50
2019-06-01T15:26:08.781Z,27.10
2019-06-01T15:28:37.817Z,27.00
2019-06-01T15:31:06.850Z,27.10
2019-06-01T15:33:36.161Z,27.10
2019-06-01T15:36:05.374Z,27.00
2019-06-01T15:38:34.418Z,27.00
2019-06-01T15:41:05.022Z,27.00
2019-06-01T15:43:33.968Z,27.00
2019-06-01T15:46:02.910Z,27.20
2019-06-01T15:48:31.785Z,27.00
2019-06-01T15:51:05.419Z,27.20
2019-06-01T15:53:31.403Z,27.30
2019-06-01T15:56:01.016Z,27.00
2019-06-01T15:58:30.053Z,27.10
2019-06-01T16:00:59.253Z,27.20
2019-06-01T16:03:28.290Z,27.00
2019-06-01T16:05:57.311Z,27.00
2019-06-01T16:08:26.359Z,27.00
2019-06-01T16:10:55.302Z,26.90
2019-06-01T16:13:24.357Z,26.70
2019-06-01T16:15:53.366Z,26.60
2019-06-01T16:18:22.385Z,26.80
2019-06-01T16:20:51.303Z,26.60
2019-06-01T16:23:20.262Z,26.50
2019-06-01T16:26:01.558Z,26.60
2019-06-01T16:28:19.881Z,26.60
2019-06-01T16:30:48.804Z,26.40
2019-06-01T16:33:17.680Z,26.20
2019-06-01T16:35:46.615Z,26.20
2019-06-01T16:38:15.562Z,26.30
2019-06-01T16:40:44.646Z,26.30
2019-06-01T16:43:13.632Z,26.40
2019-06-01T16:45:42.647Z,26.60
2019-06-01T16:48:11.751Z,26.60
2019-06-01T16:50:40.859Z,26.70
2019-06-01T16:53:09.992Z,26.80
2019-06-01T16:55:39.053Z,26.90
2019-06-01T16:58:08.091Z,26.80
2019-06-01T17:00:37.250Z,26.60
2019-06-01T17:03:08.823Z,26.30
2019-06-01T17:05:36.987Z,26.20
2019-06-01T17:08:07.029Z,26.00
2019-06-01T17:10:36.106Z,25.80
2019-06-01T17:13:08.327Z,25.70
2019-06-01T17:15:36.117Z,25.50
2019-06-01T17:18:09.656Z,25.40
2019-06-01T17:20:47.141Z,25.30
2019-06-01T17:23:27.440Z,25.30
2019-06-01T17:25:46.948Z,25.50
2019-06-01T17:28:16.084Z,25.50
2019-06-01T17:30:45.088Z,25.60
2019-06-01T17:33:14.045Z,25.40
2019-06-01T17:35:43.056Z,25.40
2019-06-01T17:38:12.302Z,25.40
2019-06-01T17:40:43.040Z,25.10
2019-06-01T17:43:13.183Z,25.30
2019-06-01T17:45:42.509Z,25.40
2019-06-01T17:48:25.158Z,25.30
2019-06-01T17:50:42.375Z,25.10
2019-06-01T17:53:11.417Z,25.20
2019-06-01T17:55:40.618Z,25.30
2019-06-01T17:58:10.199Z,25.40
2019-06-01T18:00:40.101Z,25.40
2019-06-01T18:03:10.002Z,25.40
2019-06-01T18:05:39.336Z,25.30
2019-06-01T18:08:08.364Z,25.20
2019-06-01T18:10:52.459Z,25.10
2019-06-01T18:13:10.470Z,25.10
2019-06-01T18:15:39.725Z,25.00
2019-06-01T18:18:08.877Z,25.00
2019-06-01T18:20:38.221Z,25.00
2019-06-01T18:23:08.350Z,24.90
2019-06-01T18:25:37.959Z,24.70
2019-06-01T18:28:07.223Z,24.60
2019-06-01T18:30:36.353Z,24.50
2019-06-01T18:33:06.963Z,24.30
2019-06-01T18:35:36.181Z,24.30
2019-06-01T18:38:05.739Z,24.30
2019-06-01T18:40:34.900Z,24.30
2019-06-01T18:43:07.904Z,24.10
2019-06-01T18:45:37.122Z,24.10
2019-06-01T18:48:06.544Z,24.00
2019-06-01T18:50:35.781Z,24.00
2019-06-01T18:53:06.029Z,23.90
2019-06-01T18:55:35.893Z,23.70
2019-06-01T18:58:06.377Z,23.70
2019-06-01T19:00:39.508Z,23.70
2019-06-01T19:03:07.269Z,23.70
2019-06-01T19:05:36.739Z,23.60
2019-06-01T19:08:07.019Z,23.60
2019-06-01T19:10:36.556Z,23.50
2019-06-01T19:13:05.951Z,23.50
2019-06-01T19:15:34.986Z,23.40
2019-06-01T19:18:04.156Z,23.50
2019-06-01T19:20:33.514Z,23.40
2019-06-01T19:23:02.678Z,23.40
2019-06-01T19:25:31.943Z,23.40
2019-06-01T19:28:00.993Z,23.30
2019-06-01T19:30:40.492Z,23.30
2019-06-01T19:33:13.210Z,23.20
2019-06-01T19:35:40.581Z,23.00
2019-06-01T19:38:11.369Z,22.90
2019-06-01T19:40:41.341Z,22.90
2019-06-01T19:43:13.450Z,22.90
2019-06-01T19:45:42.492Z,22.80
2019-06-01T19:48:12.348Z,22.70
2019-06-01T19:50:41.622Z,22.70
2019-06-01T19:53:10.670Z,22.70
2019-06-01T19:55:39.726Z,22.70
2019-06-01T19:58:09.765Z,22.60
2019-06-01T20:00:39.152Z,22.60
2019-06-01T20:03:08.204Z,22.60
2019-06-01T20:05:37.228Z,22.60
2019-06-01T20:08:06.287Z,22.50
2019-06-01T20:10:35.540Z,22.50
2019-06-01T20:13:04.600Z,22.40
2019-06-01T20:15:33.665Z,22.40
2019-06-01T20:18:02.730Z,22.40
2019-06-01T20:20:31.716Z,22.30
2019-06-01T20:23:01.088Z,22.30
2019-06-01T20:25:30.260Z,22.30
2019-06-01T20:28:01.064Z,22.20
2019-06-01T20:30:30.101Z,22.10
2019-06-01T20:33:01.814Z,22.00
2019-06-01T20:35:30.962Z,22.00
2019-06-01T20:38:00.043Z,21.90
2019-06-01T20:40:29.212Z,21.90
2019-06-01T20:42:58.161Z,21.80
2019-06-01T20:45:28.564Z,21.80
2019-06-01T20:48:00.695Z,21.80
2019-06-01T20:50:32.846Z,21.70
2019-06-01T20:53:05.282Z,21.70
2019-06-01T20:55:39.361Z,21.70
2019-06-01T20:58:11.319Z,21.60
2019-06-01T21:00:42.399Z,21.50
2019-06-01T21:03:15.623Z,21.50
2019-06-01T21:05:47.820Z,21.50
2019-06-01T21:08:20.158Z,21.40
2019-06-01T21:10:49.382Z,21.40
2019-06-01T21:13:18.474Z,21.40
2019-06-01T21:15:47.626Z,21.30
2019-06-01T21:18:16.568Z,21.30
2019-06-01T21:20:45.631Z,21.20
2019-06-01T21:23:14.707Z,21.20
2019-06-01T21:25:43.768Z,21.20
2019-06-01T21:28:14.900Z,21.10
2019-06-01T21:30:43.801Z,21.10
2019-06-01T21:33:12.875Z,21.00
2019-06-01T21:35:41.926Z,20.90
2019-06-01T21:38:10.944Z,20.90
2019-06-01T21:40:40.072Z,20.90
2019-06-01T21:43:23.896Z,20.80
2019-06-01T21:45:39.922Z,20.70
2019-06-01T21:48:08.986Z,20.70
2019-06-01T21:50:37.938Z,20.70
2019-06-01T21:53:06.961Z,20.70
2019-06-01T21:55:35.905Z,20.70
2019-06-01T21:58:05.213Z,20.60
2019-06-01T22:00:38.838Z,20.60
2019-06-01T22:03:08.561Z,20.60
2019-06-01T22:05:37.717Z,20.60
2019-06-01T22:08:06.791Z,20.50
2019-06-01T22:10:35.843Z,20.50
2019-06-01T22:13:18.328Z,20.50
2019-06-01T22:15:35.943Z,20.50
2019-06-01T22:18:05.051Z,20.40
2019-06-01T22:20:34.107Z,20.40
2019-06-01T22:23:03.085Z,20.40
2019-06-01T22:25:32.092Z,20.30
2019-06-01T22:28:01.050Z,20.30
2019-06-01T22:30:30.056Z,20.30
2019-06-01T22:32:59.122Z,20.20
2019-06-01T22:35:28.826Z,20.20
2019-06-01T22:37:57.843Z,20.20
2019-06-01T22:40:27.297Z,20.20
2019-06-01T22:42:56.340Z,20.10
2019-06-01T22:45:26.941Z,20.10
2019-06-01T22:47:56.184Z,20.10
2019-06-01T22:50:25.154Z,20.10
2019-06-01T22:52:54.253Z,20.10
2019-06-01T22:55:24.348Z,20.10
2019-06-01T22:57:53.419Z,20.00
2019-06-01T23:00:23.626Z,20.00
2019-06-01T23:02:52.862Z,20.00
2019-06-01T23:05:23.003Z,20.00
2019-06-01T23:07:52.355Z,20.00
2019-06-01T23:10:26.516Z,19.90
2019-06-01T23:12:52.060Z,19.90
2019-06-01T23:15:21.422Z,19.80
2019-06-01T23:17:50.770Z,19.80
2019-06-01T23:20:19.886Z,19.80
2019-06-01T23:22:48.844Z,19.80
2019-06-01T23:25:17.792Z,19.70
2019-06-01T23:27:46.707Z,19.70
2019-06-01T23:30:16.537Z,19.70
2019-06-01T23:32:45.575Z,19.70
2019-06-01T23:35:14.593Z,19.60
2019-06-01T23:37:43.536Z,19.60
2019-06-01T23:40:12.695Z,19.60
2019-06-01T23:42:41.670Z,19.50
2019-06-01T23:45:10.790Z,19.50
2019-06-01T23:47:39.747Z,19.50
2019-06-01T23:50:08.990Z,19.50
2019-06-01T23:52:37.914Z,19.40
2019-06-01T23:55:06.909Z,19.40
2019-06-01T23:57:35.936Z,19.40
